Time;durP1;ratioP1;P1;durP2;ratioP2;P2;SDS_P1;SDS_P2;PMS_P1;PMS_P2;Temp;Humidity;BMP_temperature;BMP_pressure;BME280_temperature;BME280_humidity;BME280_pressure;Samples;Min_cycle;Max_cycle;Signal;HPM_P1;HPM_P2
2021/09/05 00:00:28;;;;;;;66.30;47.00;;;12.00;99.90;;;;;;2071948;28;20101;-71
2021/09/05 00:01:28;;;;;;;69.90;48.08;;;12.00;99.90;;;;;;2072088;28;20121;-72
2021/09/05 00:02:29;;;;;;;69.63;47.78;;;12.00;99.90;;;;;;2072135;28;20033;-71
2021/09/05 00:03:29;;;;;;;69.78;48.28;;;12.00;99.90;;;;;;2072044;28;20566;-71
2021/09/05 00:04:30;;;;;;;68.38;47.08;;;11.90;99.90;;;;;;2080805;28;20440;-70
2021/09/05 00:05:31;;;;;;;69.32;48.08;;;12.00;99.90;;;;;;2072107;28;20032;-70
2021/09/05 00:06:32;;;;;;;70.20;48.17;;;11.90;99.90;;;;;;2063629;28;20418;-72
2021/09/05 00:07:32;;;;;;;71.35;48.75;;;11.90;99.90;;;;;;2072155;28;20030;-70
2021/09/05 00:08:33;;;;;;;74.28;50.47;;;11.90;99.90;;;;;;2080966;28;20029;-70
2021/09/05 00:09:35;;;;;;;75.40;49.92;;;11.90;99.90;;;;;;2080931;28;20030;-71
2021/09/05 00:10:36;;;;;;;72.32;48.80;;;11.90;99.90;;;;;;2071805;28;20033;-72
2021/09/05 00:11:36;;;;;;;71.70;48.25;;;11.90;99.90;;;;;;2071987;28;20030;-71
2021/09/05 00:12:37;;;;;;;71.72;48.17;;;11.90;99.90;;;;;;2063963;28;20073;-72
2021/09/05 00:13:38;;;;;;;71.93;48.13;;;11.80;99.90;;;;;;2064137;28;20038;-72
2021/09/05 00:14:39;;;;;;;72.40;47.83;;;11.90;99.90;;;;;;2072277;28;20498;-72
2021/09/05 00:15:40;;;;;;;68.13;46.22;;;11.80;99.90;;;;;;2080999;28;20041;-71
2021/09/05 00:16:40;;;;;;;66.50;45.45;;;11.90;99.90;;;;;;2071174;28;20030;-71
2021/09/05 00:17:42;;;;;;;68.28;46.22;;;11.90;99.90;;;;;;2071896;28;20470;-72
2021/09/05 00:18:43;;;;;;;70.15;46.97;;;11.90;99.90;;;;;;2081097;28;20115;-71
2021/09/05 00:19:43;;;;;;;66.53;45.17;;;11.90;99.90;;;;;;2080953;28;20029;-71
2021/09/05 00:20:44;;;;;;;69.68;46.70;;;11.80;99.90;;;;;;2080706;28;20063;-72
2021/09/05 00:21:45;;;;;;;69.75;47.10;;;11.80;99.90;;;;;;2072046;28;20038;-72
2021/09/05 00:22:46;;;;;;;67.40;45.88;;;11.80;99.90;;;;;;2063741;28;20130;-71
2021/09/05 00:23:47;;;;;;;67.60;45.42;;;11.80;99.90;;;;;;2056086;28;20062;-71
2021/09/05 00:24:47;;;;;;;73.13;48.45;;;11.80;99.90;;;;;;2072105;28;20510;-72
2021/09/05 00:25:48;;;;;;;69.28;45.70;;;11.80;99.90;;;;;;2080397;28;20504;-71
2021/09/05 00:26:49;;;;;;;63.55;43.83;;;11.80;99.90;;;;;;2072109;28;20029;-72
2021/09/05 00:27:49;;;;;;;65.35;44.35;;;11.80;99.90;;;;;;2063913;28;20030;-72
2021/09/05 00:28:50;;;;;;;66.57;45.60;;;11.70;99.90;;;;;;2071876;28;20367;-71
2021/09/05 00:29:51;;;;;;;66.97;44.63;;;11.70;99.90;;;;;;2071880;28;20041;-72
2021/09/05 00:30:51;;;;;;;66.40;44.80;;;11.70;99.90;;;;;;2071588;28;20053;-71
2021/09/05 00:31:53;;;;;;;65.07;44.97;;;11.70;99.90;;;;;;2071905;28;20383;-70
2021/09/05 00:32:53;;;;;;;64.82;44.83;;;11.70;99.90;;;;;;2063972;28;20062;-71
2021/09/05 00:33:58;;;;;;;65.68;44.88;;;11.70;99.90;;;;;;2063982;28;20030;-71
2021/09/05 00:34:59;;;;;;;67.13;45.15;;;11.70;99.90;;;;;;2080710;28;20056;-71
2021/09/05 00:36:00;;;;;;;66.18;45.90;;;11.70;99.90;;;;;;2080240;28;20026;-72
2021/09/05 00:37:00;;;;;;;63.72;44.58;;;11.70;99.90;;;;;;2080563;28;20048;-72
2021/09/05 00:38:01;;;;;;;67.88;45.42;;;11.70;99.90;;;;;;2071891;28;20426;-72
2021/09/05 00:39:04;;;;;;;66.18;44.85;;;11.70;99.90;;;;;;2063712;28;20030;-70
2021/09/05 00:40:06;;;;;;;66.72;46.10;;;11.60;99.90;;;;;;2072258;28;20356;-72
2021/09/05 00:41:07;;;;;;;69.05;45.70;;;11.60;99.90;;;;;;2080323;28;20482;-72
2021/09/05 00:42:08;;;;;;;63.88;43.97;;;11.60;99.90;;;;;;2080655;28;20025;-72
2021/09/05 00:43:08;;;;;;;63.38;43.35;;;11.60;99.90;;;;;;2071797;28;20134;-70
2021/09/05 00:44:10;;;;;;;63.78;44.20;;;11.60;99.90;;;;;;2071691;28;20037;-72
2021/09/05 00:45:11;;;;;;;64.10;43.15;;;11.60;99.90;;;;;;2071809;28;20081;-71
2021/09/05 00:46:11;;;;;;;64.47;43.45;;;11.60;99.90;;;;;;2063386;28;20100;-71
2021/09/05 00:47:13;;;;;;;64.40;43.20;;;11.60;99.90;;;;;;2071768;28;20037;-70
2021/09/05 00:48:13;;;;;;;64.85;44.97;;;11.60;99.90;;;;;;2080677;28;20100;-70
2021/09/05 00:49:14;;;;;;;65.82;44.58;;;11.60;99.90;;;;;;2071853;28;20018;-71
2021/09/05 00:50:15;;;;;;;65.10;43.97;;;11.60;99.90;;;;;;2071423;28;20084;-72
2021/09/05 00:51:16;;;;;;;69.30;45.65;;;11.60;99.90;;;;;;2080629;28;20028;-70
2021/09/05 00:52:18;;;;;;;69.38;44.83;;;11.60;99.90;;;;;;2063684;28;20483;-71
2021/09/05 00:53:19;;;;;;;66.45;44.58;;;11.60;99.90;;;;;;2056285;28;20555;-70
2021/09/05 00:54:21;;;;;;;68.25;44.75;;;11.60;99.90;;;;;;2055725;28;20031;-71
2021/09/05 00:55:22;;;;;;;64.95;44.10;;;11.60;99.90;;;;;;2063712;28;20419;-72
2021/09/05 00:56:28;;;;;;;69.00;45.67;;;11.60;99.90;;;;;;2071313;28;20068;-70
2021/09/05 00:57:29;;;;;;;67.30;44.55;;;11.60;99.90;;;;;;2064302;28;20510;-72
2021/09/05 00:58:30;;;;;;;64.78;44.92;;;11.50;99.90;;;;;;2063651;28;20041;-71
2021/09/05 00:59:33;;;;;;;67.63;44.83;;;11.60;99.90;;;;;;2063638;28;20026;-72
2021/09/05 01:00:35;;;;;;;65.40;44.72;;;11.60;99.90;;;;;;2071677;28;20030;-72
2021/09/05 01:01:37;;;;;;;65.15;44.88;;;11.50;99.90;;;;;;2080583;28;20037;-71
2021/09/05 01:02:38;;;;;;;64.25;43.75;;;11.50;99.90;;;;;;2071848;28;20490;-71
2021/09/05 01:03:40;;;;;;;63.60;43.70;;;11.50;99.90;;;;;;2072060;28;20052;-71
2021/09/05 01:04:42;;;;;;;68.55;46.63;;;11.50;99.90;;;;;;2063759;28;20062;-71
2021/09/05 01:05:44;;;;;;;67.38;45.20;;;11.50;99.90;;;;;;2064114;28;20037;-72
2021/09/05 01:06:45;;;;;;;68.47;45.53;;;11.50;99.90;;;;;;2080707;28;20394;-72
2021/09/05 01:07:46;;;;;;;70.55;47.15;;;11.50;99.90;;;;;;2081326;28;20550;-72
2021/09/05 01:08:48;;;;;;;72.40;46.42;;;11.50;99.90;;;;;;2064206;28;20038;-71
2021/09/05 01:09:50;;;;;;;70.15;45.22;;;11.50;99.90;;;;;;2064237;28;20030;-71
2021/09/05 01:10:52;;;;;;;73.47;46.72;;;11.50;99.90;;;;;;2064018;28;20057;-70
2021/09/05 01:11:55;;;;;;;69.28;46.13;;;11.50;99.90;;;;;;2056644;28;20105;-72
2021/09/05 01:12:58;;;;;;;67.18;43.58;;;11.50;99.90;;;;;;2073056;28;20026;-71
2021/09/05 01:14:03;;;;;;;68.07;44.38;;;11.40;99.90;;;;;;2072612;28;20109;-71
2021/09/05 01:15:05;;;;;;;70.30;45.47;;;11.50;99.90;;;;;;2073431;28;20026;-72
2021/09/05 01:16:22;;;;;;;65.72;43.53;;;11.50;99.90;;;;;;2064358;28;20570;-70
2021/09/05 01:17:24;;;;;;;66.32;42.25;;;11.40;99.90;;;;;;2069211;28;20053;-71
2021/09/05 01:18:42;;;;;;;63.70;41.63;;;11.40;99.90;;;;;;2081047;28;20492;-71
2021/09/05 01:20:09;;;;;;;67.88;43.95;;;11.40;99.90;;;;;;2080586;28;20507;-71
2021/09/05 01:21:28;;;;;;;64.18;42.25;;;11.40;99.90;;;;;;2080604;28;20037;-71
2021/09/05 01:22:49;;;;;;;65.03;41.10;;;11.30;99.90;;;;;;2080032;28;20474;-72
2021/09/05 01:23:55;;;;;;;62.13;41.13;;;11.30;99.90;;;;;;2080723;28;20045;-72
2021/09/05 01:25:26;;;;;;;;;;;11.30;99.90;;;;;;2081244;28;20033;-71
2021/09/05 01:26:59;;;;;;;65.18;41.08;;;11.30;99.90;;;;;;2062898;28;19932;-72
2021/09/05 01:28:29;;;;;;;63.38;41.67;;;11.30;99.90;;;;;;2065489;28;20044;-72
2021/09/05 01:29:56;;;;;;;64.03;41.92;;;11.30;99.90;;;;;;2071783;28;20030;-71
2021/09/05 01:31:12;;;;;;;66.13;42.45;;;11.30;99.90;;;;;;2065047;28;20022;-72
2021/09/05 01:34:29;;;;;;;68.72;42.72;;;11.20;99.90;;;;;;2079488;28;19956;-71
2021/09/05 01:35:48;;;;;;;72.93;44.25;;;11.30;99.90;;;;;;2081091;28;20037;-70
2021/09/05 01:37:08;;;;;;;70.80;44.38;;;11.30;99.90;;;;;;2080251;28;20100;-71
2021/09/05 01:38:27;;;;;;;68.32;43.30;;;11.20;99.90;;;;;;2087621;28;20036;-70
2021/09/05 01:39:46;;;;;;;68.65;42.88;;;11.30;99.90;;;;;;2087504;28;20038;-72
2021/09/05 01:41:10;;;;;;;65.72;42.05;;;11.30;99.90;;;;;;2070916;28;20508;-72
2021/09/05 01:42:31;;;;;;;;;;;11.30;99.90;;;;;;2086943;28;20055;-72
2021/09/05 01:43:43;;;;;;;62.75;40.60;;;11.30;99.90;;;;;;2079839;28;19935;-71
2021/09/05 01:45:03;;;;;;;65.50;41.28;;;11.30;99.90;;;;;;2082789;28;20037;-71
2021/09/05 01:46:23;;;;;;;;;;;11.30;99.90;;;;;;2088892;28;20087;-70
2021/09/05 01:47:53;;;;;;;66.40;40.88;;;11.20;99.90;;;;;;2071599;28;19916;-71
2021/09/05 01:49:16;;;;;;;68.07;41.25;;;11.20;99.90;;;;;;2066896;28;20089;-71
2021/09/05 01:50:36;;;;;;;64.85;40.92;;;11.20;99.90;;;;;;2081505;28;20044;-70
2021/09/05 01:51:55;;;;;;;68.78;41.72;;;11.20;99.90;;;;;;2086974;28;20440;-71
2021/09/05 01:53:24;;;;;;;70.78;43.47;;;11.10;99.90;;;;;;2079078;28;20053;-71
2021/09/05 01:54:43;;;;;;;71.93;44.47;;;11.10;99.90;;;;;;2081666;28;20041;-71
2021/09/05 01:56:10;;;;;;;74.47;44.85;;;11.10;99.90;;;;;;2071966;28;20034;-70
2021/09/05 01:57:40;;;;;;;74.50;43.95;;;11.10;99.90;;;;;;2070820;28;20048;-69
2021/09/05 01:59:00;;;;;;;68.10;43.72;;;11.10;99.90;;;;;;2073643;28;20046;-71
2021/09/05 02:00:20;;;;;;;72.13;44.50;;;11.10;99.90;;;;;;2070480;28;20033;-71
2021/09/05 02:01:29;;;;;;;73.82;45.63;;;11.10;99.90;;;;;;2077779;28;20041;-70
2021/09/05 02:02:51;;;;;;;74.45;45.50;;;11.10;99.90;;;;;;2081361;28;20120;-71
2021/09/05 02:04:14;;;;;;;78.65;46.97;;;11.10;99.90;;;;;;2075865;28;20422;-71
2021/09/05 02:05:32;;;;;;;81.70;48.25;;;11.10;99.90;;;;;;2065556;28;20153;-71
2021/09/05 02:07:11;;;;;;;75.00;45.38;;;11.10;99.90;;;;;;2067772;28;20037;-70
2021/09/05 02:08:31;;;;;;;72.82;44.13;;;11.00;99.90;;;;;;2070911;28;20484;-70
2021/09/05 02:09:55;;;;;;;74.55;44.55;;;11.10;99.90;;;;;;2062879;28;20034;-71
2021/09/05 02:11:25;;;;;;;69.03;43.28;;;11.00;99.90;;;;;;2060907;28;20391;-69
2021/09/05 02:12:43;;;;;;;78.60;45.60;;;11.10;99.90;;;;;;2065046;28;20141;-69
2021/09/05 02:14:03;;;;;;;73.20;44.22;;;11.10;99.90;;;;;;2074089;28;20057;-70
2021/09/05 02:15:22;;;;;;;74.97;45.08;;;11.10;99.90;;;;;;2080290;28;20456;-70
2021/09/05 02:16:41;;;;;;;73.35;45.30;;;11.10;99.90;;;;;;2080375;28;20116;-71
2021/09/05 02:18:00;;;;;;;73.40;44.50;;;11.10;99.90;;;;;;2071757;28;20066;-70
2021/09/05 02:19:28;;;;;;;73.78;44.92;;;11.10;99.90;;;;;;2069517;28;20072;-70
2021/09/05 02:20:49;;;;;;;77.55;45.97;;;11.10;99.90;;;;;;2070839;28;20038;-71
2021/09/05 02:22:08;;;;;;;74.95;45.22;;;11.10;99.90;;;;;;2080125;28;20049;-70
2021/09/05 02:23:28;;;;;;;80.15;48.42;;;11.10;99.90;;;;;;2079993;28;20033;-70
2021/09/05 02:24:42;;;;;;;79.75;47.53;;;11.10;99.90;;;;;;2071694;28;20589;-71
2021/09/05 02:27:05;;;;;;;85.43;47.25;;;11.10;99.90;;;;;;2065730;28;20080;-70
2021/09/05 02:28:26;;;;;;;75.07;45.92;;;11.10;99.90;;;;;;2071572;28;20410;-69
2021/09/05 02:29:53;;;;;;;82.22;48.20;;;11.10;99.90;;;;;;2072988;28;20037;-69
2021/09/05 02:31:11;;;;;;;81.85;47.65;;;11.20;99.90;;;;;;2087943;28;20021;-70
2021/09/05 02:32:41;;;;;;;76.65;47.15;;;11.20;99.90;;;;;;2079286;28;20453;-70
2021/09/05 02:34:03;;;;;;;80.20;45.38;;;11.20;99.90;;;;;;2079299;28;20041;-69
2021/09/05 02:35:17;;;;;;;84.50;48.35;;;11.20;99.90;;;;;;2071116;28;20026;-71
2021/09/05 02:36:41;;;;;;;86.07;49.15;;;11.30;99.90;;;;;;2051393;28;20034;-71
2021/09/05 02:37:48;;;;;;;88.65;50.90;;;11.30;99.90;;;;;;2078890;28;20429;-71
2021/09/05 02:39:07;;;;;;;92.88;51.42;;;11.40;99.90;;;;;;2082871;28;20045;-72
2021/09/05 02:40:27;;;;;;;94.72;51.97;;;11.30;99.90;;;;;;2088600;28;20124;-71
2021/09/05 02:41:41;;;;;;;88.85;49.42;;;11.40;99.90;;;;;;2080966;28;20033;-72
2021/09/05 02:42:57;;;;;;;82.72;46.70;;;11.40;99.90;;;;;;2074821;28;20034;-71
2021/09/05 02:44:30;;;;;;;88.20;47.58;;;11.50;99.90;;;;;;2056349;28;20039;-71
2021/09/05 02:46:06;;;;;;;89.25;47.03;;;11.50;99.90;;;;;;2055796;28;20095;-70
2021/09/05 02:47:29;;;;;;;93.85;51.80;;;11.50;99.90;;;;;;2056038;28;20117;-70
2021/09/05 02:49:08;;;;;;;90.03;49.42;;;11.60;99.90;;;;;;2064085;28;20391;-70
2021/09/05 02:50:28;;;;;;;90.15;47.90;;;11.50;99.90;;;;;;2064010;28;20034;-70
2021/09/05 02:52:00;;;;;;;90.07;49.88;;;11.60;99.90;;;;;;2064111;28;20026;-70
2021/09/05 02:53:19;;;;;;;88.65;47.88;;;11.60;99.90;;;;;;2064275;28;20062;-71
2021/09/05 02:54:39;;;;;;;84.75;47.53;;;11.60;99.90;;;;;;2072260;28;20027;-70
2021/09/05 02:55:58;;;;;;;91.20;49.38;;;11.70;99.90;;;;;;2089467;28;20521;-70
2021/09/05 02:57:19;;;;;;;88.75;48.42;;;11.60;99.90;;;;;;2080914;28;20522;-69
2021/09/05 02:58:51;;;;;;;87.90;48.25;;;11.60;99.90;;;;;;2072162;28;20037;-70
2021/09/05 03:00:15;;;;;;;86.45;47.60;;;11.60;99.90;;;;;;2087324;28;20179;-69
2021/09/05 03:01:48;;;;;;;86.85;47.53;;;11.70;99.90;;;;;;2080521;28;20033;-70
2021/09/05 03:03:09;;;;;;;82.35;46.03;;;11.70;99.90;;;;;;2083053;28;20112;-69
2021/09/05 03:04:25;;;;;;;83.97;47.35;;;11.70;99.90;;;;;;2080702;28;20120;-69
2021/09/05 03:05:44;;;;;;;81.45;46.65;;;11.70;99.90;;;;;;2074824;28;20026;-71
2021/09/05 03:07:20;;;;;;;80.43;45.63;;;11.80;99.90;;;;;;2085732;28;20508;-70
2021/09/05 03:08:46;;;;;;;75.55;44.03;;;11.80;99.90;;;;;;2080880;28;20030;-70
2021/09/05 03:10:09;;;;;;;76.35;43.60;;;11.80;99.90;;;;;;2078931;28;20022;-70
2021/09/05 03:11:35;;;;;;;80.07;46.60;;;11.90;99.90;;;;;;2058391;28;20062;-70
2021/09/05 03:13:02;;;;;;;86.18;47.38;;;11.90;99.90;;;;;;2072547;28;20040;-70
2021/09/05 03:14:29;;;;;;;80.15;46.72;;;11.90;99.90;;;;;;2078737;28;20040;-70
2021/09/05 03:15:58;;;;;;;88.40;49.60;;;11.90;99.90;;;;;;2071325;28;20030;-70
2021/09/05 03:17:24;;;;;;;91.00;50.40;;;12.00;99.90;;;;;;2083334;28;20095;-70
2021/09/05 03:18:40;;;;;;;93.88;51.25;;;12.00;99.90;;;;;;2080680;28;20083;-70
2021/09/05 03:20:12;;;;;;;91.35;50.50;;;12.00;99.90;;;;;;2080460;28;20072;-70
2021/09/05 03:21:34;;;;;;;94.30;50.45;;;12.00;99.90;;;;;;2075141;28;20021;-70
2021/09/05 03:23:01;;;;;;;92.30;48.80;;;12.00;99.90;;;;;;2083157;28;20034;-70
2021/09/05 03:24:31;;;;;;;81.17;46.20;;;12.00;99.90;;;;;;2089594;28;20428;-72
2021/09/05 03:25:57;;;;;;;83.15;45.63;;;12.00;99.90;;;;;;2080074;28;20029;-70
2021/09/05 03:27:24;;;;;;;85.65;46.92;;;12.00;99.90;;;;;;2074781;28;20083;-71
2021/09/05 03:28:46;;;;;;;86.15;46.47;;;12.00;99.90;;;;;;2080754;28;20093;-71
2021/09/05 03:30:06;;;;;;;84.57;45.08;;;12.00;99.90;;;;;;2074581;28;20022;-71
2021/09/05 03:31:29;;;;;;;92.80;49.10;;;12.10;99.90;;;;;;2083847;28;20048;-71
2021/09/05 03:32:50;;;;;;;;;;;12.10;99.90;;;;;;2089199;28;20049;-71
2021/09/05 03:34:09;;;;;;;96.90;48.78;;;12.00;99.90;;;;;;2089616;28;19909;-71
2021/09/05 03:35:30;;;;;;;91.47;48.92;;;12.00;99.90;;;;;;2088825;28;20025;-71
2021/09/05 03:36:58;;;;;;;87.97;47.35;;;12.00;99.90;;;;;;2080579;28;20468;-71
2021/09/05 03:38:14;;;;;;;105.28;52.25;;;12.00;99.90;;;;;;2074535;28;20045;-71
2021/09/05 03:39:45;;;;;;;95.03;49.97;;;12.10;99.90;;;;;;2076594;28;20079;-71
2021/09/05 03:41:08;;;;;;;96.03;50.35;;;12.10;99.90;;;;;;2083420;28;20331;-71
2021/09/05 03:42:31;;;;;;;106.32;53.67;;;12.10;99.90;;;;;;2080563;28;20571;-71
2021/09/05 03:43:59;;;;;;;106.68;53.90;;;12.00;99.90;;;;;;2075914;28;20091;-71
2021/09/05 03:45:18;;;;;;;105.55;54.13;;;12.10;99.90;;;;;;2083350;28;20045;-71
2021/09/05 03:46:39;;;;;;;;;;;12.10;99.90;;;;;;2075663;28;20036;-71
2021/09/05 03:48:06;;;;;;;110.55;51.75;;;12.10;99.90;;;;;;2073703;28;20377;-71
2021/09/05 03:49:28;;;;;;;;;;;12.10;99.90;;;;;;2082568;28;20037;-71
2021/09/05 03:50:29;;;;;;;95.07;49.20;;;12.00;99.90;;;;;;2080173;28;19927;-70
2021/09/05 03:51:30;;;;;;;87.15;47.83;;;12.10;99.90;;;;;;2072057;28;20095;-71
2021/09/05 03:52:33;;;;;;;91.70;49.78;;;12.10;99.90;;;;;;2072173;28;20022;-71
2021/09/05 03:53:37;;;;;;;96.30;51.58;;;12.00;99.90;;;;;;2072930;28;20064;-71
2021/09/05 03:54:39;;;;;;;86.32;47.38;;;12.00;99.90;;;;;;2080692;28;20413;-71
2021/09/05 03:55:39;;;;;;;85.35;47.75;;;12.10;99.90;;;;;;2079887;28;20124;-70
2021/09/05 03:56:41;;;;;;;91.32;50.10;;;12.10;99.90;;;;;;2072241;28;20608;-71
2021/09/05 03:57:42;;;;;;;95.63;47.42;;;12.10;99.90;;;;;;2071914;28;20034;-70
2021/09/05 03:58:43;;;;;;;102.00;50.63;;;12.10;99.90;;;;;;2080475;28;20076;-72
2021/09/05 03:59:44;;;;;;;92.50;50.35;;;12.10;99.90;;;;;;2080416;28;20516;-70
2021/09/05 04:00:49;;;;;;;101.28;50.67;;;12.10;99.90;;;;;;2071728;28;20036;-71
2021/09/05 04:01:50;;;;;;;88.00;49.40;;;12.10;99.90;;;;;;2072912;28;20064;-72
2021/09/05 04:02:57;;;;;;;93.03;49.45;;;12.10;99.90;;;;;;2080413;28;20599;-72
2021/09/05 04:03:57;;;;;;;97.97;52.03;;;12.10;99.90;;;;;;2072265;28;20157;-72
2021/09/05 04:04:58;;;;;;;92.93;49.88;;;12.10;99.90;;;;;;2080413;28;20374;-72
2021/09/05 04:05:59;;;;;;;100.47;52.45;;;12.10;99.90;;;;;;2088793;28;20074;-72
2021/09/05 04:07:00;;;;;;;92.75;49.58;;;12.10;99.90;;;;;;2080282;28;20030;-72
2021/09/05 04:09:17;;;;;;;96.80;52.45;;;12.10;99.90;;;;;;2089168;28;20036;-72
2021/09/05 04:10:20;;;;;;;96.85;50.70;;;12.10;99.90;;;;;;2088830;28;20021;-72
2021/09/05 04:11:21;;;;;;;105.78;53.70;;;12.10;99.90;;;;;;2088978;28;20028;-72
2021/09/05 04:12:21;;;;;;;97.07;52.00;;;12.20;99.90;;;;;;2080177;28;20480;-72
2021/09/05 04:13:22;;;;;;;100.53;52.10;;;12.20;99.90;;;;;;2080356;28;20064;-72
2021/09/05 04:14:23;;;;;;;95.50;50.38;;;12.10;99.90;;;;;;2089179;28;20245;-72
2021/09/05 04:15:23;;;;;;;97.28;51.80;;;12.10;99.90;;;;;;2089389;28;20029;-72
2021/09/05 04:16:24;;;;;;;97.78;49.63;;;12.10;99.90;;;;;;2080141;28;20061;-72
2021/09/05 04:17:24;;;;;;;111.30;54.83;;;12.20;99.90;;;;;;2080301;28;20502;-72
2021/09/05 04:18:25;;;;;;;112.03;55.45;;;12.20;99.90;;;;;;2089135;28;20409;-70
2021/09/05 04:19:26;;;;;;;108.53;53.35;;;12.20;99.90;;;;;;2088882;28;20448;-72
2021/09/05 04:20:26;;;;;;;113.57;54.85;;;12.20;99.90;;;;;;2088970;28;20092;-71
2021/09/05 04:21:27;;;;;;;99.82;51.78;;;12.20;99.90;;;;;;2089097;28;20051;-73
2021/09/05 04:22:27;;;;;;;99.57;50.60;;;12.20;99.90;;;;;;2089022;28;20063;-71
2021/09/05 04:23:28;;;;;;;105.45;52.70;;;12.20;99.90;;;;;;2089115;28;20024;-71
2021/09/05 04:24:29;;;;;;;100.38;53.40;;;12.20;99.90;;;;;;2089315;28;20040;-71
2021/09/05 04:25:30;;;;;;;99.75;51.83;;;12.20;99.90;;;;;;2088737;28;20036;-71
2021/09/05 04:26:30;;;;;;;103.25;51.83;;;12.20;99.90;;;;;;2080525;28;20053;-71
2021/09/05 04:27:31;;;;;;;92.22;49.58;;;12.20;99.90;;;;;;2080593;28;20039;-71
2021/09/05 04:28:32;;;;;;;90.90;49.40;;;12.10;99.90;;;;;;2089214;28;20032;-71
2021/09/05 04:29:32;;;;;;;106.57;50.63;;;12.10;99.90;;;;;;2089754;28;20037;-71
2021/09/05 04:30:33;;;;;;;125.63;49.95;;;12.10;99.90;;;;;;2089559;28;20036;-71
2021/09/05 04:31:33;;;;;;;84.40;46.22;;;12.10;99.90;;;;;;2090455;28;20036;-71
2021/09/05 04:32:35;;;;;;;84.55;45.22;;;12.00;99.90;;;;;;2081510;28;20029;-71
2021/09/05 04:33:35;;;;;;;84.70;44.20;;;12.10;99.90;;;;;;2081405;28;20022;-71
2021/09/05 04:34:36;;;;;;;87.95;46.83;;;12.10;99.90;;;;;;2089960;28;20658;-71
2021/09/05 04:35:37;;;;;;;86.57;44.95;;;12.00;99.90;;;;;;2090171;28;20029;-71
2021/09/05 04:36:37;;;;;;;79.13;43.45;;;12.00;99.90;;;;;;2080869;28;20401;-71
2021/09/05 04:37:38;;;;;;;79.95;43.28;;;12.00;99.90;;;;;;2082484;28;20038;-71
2021/09/05 04:38:39;;;;;;;84.05;44.55;;;12.00;99.90;;;;;;2090064;28;20029;-71
2021/09/05 04:39:40;;;;;;;85.22;45.30;;;12.00;99.90;;;;;;2089754;28;20073;-71
2021/09/05 04:40:44;;;;;;;77.15;42.50;;;12.00;99.90;;;;;;2080455;28;20379;-72
2021/09/05 04:41:46;;;;;;;79.57;42.88;;;12.00;99.90;;;;;;2081073;28;20033;-72
2021/09/05 04:42:53;;;;;;;74.00;40.50;;;12.00;99.90;;;;;;2089695;28;20119;-70
2021/09/05 04:43:56;;;;;;;74.80;41.55;;;12.00;99.90;;;;;;2088836;28;20036;-72
2021/09/05 04:44:57;;;;;;;85.55;43.10;;;12.00;99.90;;;;;;2080179;28;20021;-71
2021/09/05 04:45:58;;;;;;;82.13;42.60;;;12.00;99.90;;;;;;2079882;28;20433;-71
2021/09/05 04:46:59;;;;;;;83.90;41.67;;;12.00;99.90;;;;;;2080063;28;20097;-71
2021/09/05 04:47:59;;;;;;;82.28;42.80;;;12.00;99.90;;;;;;2080015;28;20383;-72
2021/09/05 04:49:00;;;;;;;79.68;41.65;;;12.00;99.90;;;;;;2079932;28;20060;-72
2021/09/05 04:50:01;;;;;;;79.32;42.08;;;12.00;99.90;;;;;;2080003;28;20051;-72
2021/09/05 04:51:01;;;;;;;80.30;39.92;;;12.00;99.90;;;;;;2088700;28;20036;-72
2021/09/05 04:52:03;;;;;;;72.95;39.03;;;12.00;99.90;;;;;;2088953;28;20028;-72
2021/09/05 04:53:04;;;;;;;78.97;39.58;;;12.10;99.90;;;;;;2088757;28;20033;-72
2021/09/05 04:54:05;;;;;;;80.05;41.65;;;12.10;99.90;;;;;;2080178;28;20022;-72
2021/09/05 04:55:05;;;;;;;76.85;39.63;;;12.10;99.90;;;;;;2080114;28;20024;-72
2021/09/05 04:56:06;;;;;;;83.30;41.95;;;12.10;99.90;;;;;;2079976;28;20091;-72
2021/09/05 04:57:07;;;;;;;78.88;41.15;;;12.10;99.90;;;;;;2071987;28;20077;-72
2021/09/05 04:58:07;;;;;;;83.38;42.13;;;12.10;99.90;;;;;;2071889;28;20052;-72
2021/09/05 04:59:08;;;;;;;89.60;44.58;;;12.10;99.90;;;;;;2080158;28;20026;-72
2021/09/05 05:00:09;;;;;;;83.78;42.55;;;12.10;99.90;;;;;;2088789;28;20036;-72
2021/09/05 05:01:09;;;;;;;84.78;43.10;;;12.10;99.90;;;;;;2079480;28;20075;-72
2021/09/05 05:02:10;;;;;;;82.10;41.35;;;12.10;99.90;;;;;;2071685;28;20482;-72
2021/09/05 05:03:10;;;;;;;79.03;42.63;;;12.10;99.90;;;;;;2079405;28;20516;-72
2021/09/05 05:04:11;;;;;;;83.57;43.38;;;12.10;99.90;;;;;;2088816;28;20120;-72
2021/09/05 05:05:12;;;;;;;79.72;41.90;;;12.10;99.90;;;;;;2088705;28;20016;-72
2021/09/05 05:06:12;;;;;;;80.05;42.25;;;12.20;99.90;;;;;;2088303;28;20028;-72
2021/09/05 05:07:13;;;;;;;79.13;42.15;;;12.10;99.90;;;;;;2088751;28;20086;-72
2021/09/05 05:08:13;;;;;;;79.07;41.30;;;12.10;99.90;;;;;;2088414;28;20091;-72
2021/09/05 05:09:15;;;;;;;70.00;39.30;;;12.20;99.90;;;;;;2079738;28;20116;-72
2021/09/05 05:10:16;;;;;;;71.00;39.65;;;12.20;99.90;;;;;;2079618;28;20374;-72
2021/09/05 05:11:16;;;;;;;77.15;40.53;;;12.20;99.90;;;;;;2088593;28;20164;-72
2021/09/05 05:12:17;;;;;;;78.53;40.92;;;12.20;99.90;;;;;;2088615;28;20035;-72
2021/09/05 05:13:18;;;;;;;77.75;39.95;;;12.20;99.90;;;;;;2088647;28;20033;-72
2021/09/05 05:14:18;;;;;;;80.43;40.80;;;12.20;99.90;;;;;;2088612;28;20063;-72
2021/09/05 05:15:19;;;;;;;75.53;39.88;;;12.20;99.90;;;;;;2088564;28;20025;-72
2021/09/05 05:16:22;;;;;;;74.15;39.88;;;12.20;99.90;;;;;;2088088;28;20025;-72
2021/09/05 05:17:22;;;;;;;70.95;39.40;;;12.20;99.90;;;;;;2088621;28;20041;-71
2021/09/05 05:18:23;;;;;;;74.70;39.83;;;12.20;99.90;;;;;;2079792;28;20029;-71
2021/09/05 05:19:24;;;;;;;71.50;39.28;;;12.20;99.90;;;;;;2071502;28;20033;-71
2021/09/05 05:20:25;;;;;;;75.30;38.83;;;12.20;99.90;;;;;;2079332;28;20040;-71
2021/09/05 05:21:27;;;;;;;74.10;38.85;;;12.20;99.90;;;;;;2088539;28;20115;-71
2021/09/05 05:22:27;;;;;;;77.53;40.65;;;12.20;99.90;;;;;;2088565;28;20397;-71
2021/09/05 05:23:29;;;;;;;75.90;39.90;;;12.20;99.90;;;;;;2088651;28;20040;-71
2021/09/05 05:24:29;;;;;;;73.30;37.67;;;12.20;99.90;;;;;;2088578;28;20397;-71
2021/09/05 05:25:30;;;;;;;68.85;37.58;;;12.10;99.90;;;;;;2088276;28;20024;-73
2021/09/05 05:26:31;;;;;;;72.15;39.15;;;12.20;99.90;;;;;;2079941;28;20041;-71
2021/09/05 05:27:31;;;;;;;67.32;39.17;;;12.20;99.90;;;;;;2079797;28;20029;-72
2021/09/05 05:28:32;;;;;;;67.38;37.70;;;12.20;99.90;;;;;;2079935;28;20022;-71
2021/09/05 05:29:33;;;;;;;68.60;37.83;;;12.20;99.90;;;;;;2079753;28;20144;-71
2021/09/05 05:30:34;;;;;;;70.63;37.38;;;12.20;99.90;;;;;;2071403;28;20414;-71
2021/09/05 05:31:34;;;;;;;74.57;40.22;;;12.20;99.90;;;;;;2071529;28;20081;-71
2021/09/05 05:32:35;;;;;;;69.90;38.03;;;12.20;99.90;;;;;;2071509;28;20445;-71
2021/09/05 05:33:35;;;;;;;69.30;37.00;;;12.20;99.90;;;;;;2079730;28;20037;-71
2021/09/05 05:34:36;;;;;;;69.80;37.50;;;12.20;99.90;;;;;;2088521;28;20037;-71
2021/09/05 05:35:37;;;;;;;68.50;37.75;;;12.20;99.90;;;;;;2088065;28;20055;-72
2021/09/05 05:36:37;;;;;;;73.18;38.10;;;12.30;99.90;;;;;;2088543;28;20040;-71
2021/09/05 05:37:38;;;;;;;65.60;36.28;;;12.30;99.90;;;;;;2088569;28;20040;-72
2021/09/05 05:38:42;;;;;;;66.50;36.50;;;12.30;99.90;;;;;;2088546;28;20029;-71
2021/09/05 05:39:50;;;;;;;66.95;36.13;;;12.30;99.90;;;;;;2079591;28;20429;-70
2021/09/05 05:40:51;;;;;;;66.75;36.53;;;12.30;99.90;;;;;;2071843;28;20029;-71
2021/09/05 05:41:52;;;;;;;67.45;37.30;;;12.40;99.90;;;;;;2079619;28;20509;-71
2021/09/05 05:42:52;;;;;;;68.28;37.17;;;12.40;99.90;;;;;;2088520;28;20032;-71
2021/09/05 05:43:53;;;;;;;65.03;36.53;;;12.40;99.90;;;;;;2088392;28;20036;-71
2021/09/05 05:44:54;;;;;;;72.50;37.05;;;12.40;99.90;;;;;;2088544;28;20123;-71
2021/09/05 05:45:54;;;;;;;68.63;37.05;;;12.50;99.90;;;;;;2087869;28;20127;-71
2021/09/05 05:46:55;;;;;;;69.55;37.85;;;12.50;99.90;;;;;;2088449;28;20029;-71
2021/09/05 05:47:56;;;;;;;67.68;35.97;;;12.50;99.90;;;;;;2088578;28;20167;-72
2021/09/05 05:48:56;;;;;;;67.70;36.55;;;12.50;99.90;;;;;;2079657;28;20053;-71
2021/09/05 05:49:57;;;;;;;75.00;38.40;;;12.50;99.90;;;;;;2079419;28;20029;-71
2021/09/05 05:50:57;;;;;;;65.25;35.95;;;12.50;99.90;;;;;;2079280;28;20616;-71
2021/09/05 05:51:58;;;;;;;65.60;35.08;;;12.50;99.90;;;;;;2071445;28;20112;-70
2021/09/05 05:52:58;;;;;;;64.85;34.53;;;12.50;99.90;;;;;;2079547;28;20132;-69
2021/09/05 05:53:59;;;;;;;71.10;37.90;;;12.60;99.90;;;;;;2088456;28;20017;-70